Flight Information

DEPARTURE
LOS ANGELES, CA
Elevation:
1003
Runways:
12/30 - 4120x75 - ASPH-G
Active PE Departure:
12 - 30
Current PE ATIS:
Y
Altimeter:
Remarks:
IFR DEPARTURES EXPECT RUNWAY 3 0.
ATIS:
132.1 818-899-9820
Ground:
125
Tower:
135
DESTINATION
,
Elevation:
TPA:
1000 (est.)


6789.2 NM73° True-14° Var59° HDG

Flight Plan:
(click to file on line)

1. Type
2. Aircraft Identification
3. Aircraft Type / Special Equipment
4. True Airspeed
kts
5. Departure Airport
(ICAO code)
6. Arriving Airport
(ICAO code)
7. Cruising Altitude
ft
8. Alternate Airport
(ICAO code)
9. Route of Flight
10. Remarks


00:00:00 Departure ATIS: Destination ATIS:

Clearance Limit:
Route:
Altitude: Expect in minutes
Frequency:
Transponder: (7500 Hijack / 7600 Lost Comms / 7700 Emergency)


KWHP 101555Z 00000KT 10SM SKC 22/13 A3004
Time: 2020-07-10T15:55:00Z
1594397930
Winds: calm
Visibility: 10.0 sm
Clouds (AGL): SKC
Temperature: 22.0 C
Dew Point: 13.0 C
Pressure: 30.041338 in Hgbr


Notes:

Data extracted from FAA Digital Chart Supplement. Effective: 0901Z Thursday, May 21, 2020 to 0901Z Thursday, Jul 16, 2020
Current ATIS data is provided courtisy of PilotEdge.